Time;durP1;ratioP1;P1;durP2;ratioP2;P2;SDS_P1;SDS_P2;PMS_P1;PMS_P2;Temp;Humidity;BMP_temperature;BMP_pressure;BME280_temperature;BME280_humidity;BME280_pressure;Samples;Min_cycle;Max_cycle;Signal;HPM_P1;HPM_P2
2021/08/22 07:16:15;;;;;;;6.20;2.42;;;;;;;21.27;100.00;99387.95;1816369;79;22798;-61
2021/08/22 07:18:43;;;;;;;11.93;4.97;;;;;;;21.36;100.00;99392.93;1789385;79;21060;-61
2021/08/22 07:21:11;;;;;;;10.13;4.35;;;;;;;21.56;100.00;99396.02;1781155;79;21148;-61
2021/08/22 07:23:39;;;;;;;6.17;3.27;;;;;;;21.72;100.00;99393.48;1780568;80;20907;-62
2021/08/22 07:26:07;;;;;;;5.37;2.80;;;;;;;21.89;100.00;99390.02;1779154;80;20912;-62
2021/08/22 07:28:35;;;;;;;8.23;3.37;;;;;;;22.08;100.00;99392.70;1779221;80;20920;-61
2021/08/22 07:31:05;;;;;;;9.75;3.05;;;;;;;22.25;100.00;99388.75;1783214;80;20915;-64
2021/08/22 07:33:33;;;;;;;5.12;2.90;;;;;;;22.41;100.00;99387.02;1789473;80;21187;-62
2021/08/22 07:36:03;;;;;;;3.70;2.80;;;;;;;22.57;100.00;99383.95;1788200;79;20895;-64
2021/08/22 07:38:32;;;;;;;3.22;2.30;;;;;;;22.73;100.00;99383.19;1789428;80;20891;-64
2021/08/22 07:41:04;;;;;;;6.10;2.50;;;;;;;22.86;100.00;99375.77;1789371;80;20987;-64
2021/08/22 07:43:33;;;;;;;4.55;2.17;;;;;;;23.04;100.00;99383.81;1778660;79;21416;-63
2021/08/22 07:46:00;;;;;;;4.10;2.52;;;;;;;23.22;100.00;99385.08;1773520;80;21152;-65
2021/08/22 07:48:28;;;;;;;3.47;2.22;;;;;;;23.39;100.00;99384.63;1772920;80;20945;-64
2021/08/22 07:50:56;;;;;;;4.75;2.47;;;;;;;23.55;100.00;99386.91;1775712;80;21518;-64
2021/08/22 07:53:23;;;;;;;2.90;2.12;;;;;;;23.69;100.00;99384.34;1774778;80;21119;-63
2021/08/22 07:55:52;;;;;;;4.62;2.58;;;;;;;23.82;100.00;99378.66;1758834;80;21408;-64
2021/08/22 07:58:20;;;;;;;5.70;2.83;;;;;;;23.96;100.00;99375.17;1788718;79;21147;-64
2021/08/22 08:00:48;;;;;;;4.47;2.17;;;;;;;24.08;100.00;99381.20;1778994;79;21551;-63
2021/08/22 08:03:15;;;;;;;5.55;2.37;;;;;;;24.22;100.00;99379.09;1773782;80;20995;-64
2021/08/22 08:05:43;;;;;;;5.05;2.15;;;;;;;24.36;100.00;99381.00;1789408;80;20864;-64
2021/08/22 08:08:13;;;;;;;2.12;1.70;;;;;;;24.47;100.00;99379.41;1776106;79;21426;-66
2021/08/22 08:10:42;;;;;;;3.70;2.50;;;;;;;24.60;100.00;99380.06;1773977;79;21132;-64
2021/08/22 08:13:09;;;;;;;3.30;2.25;;;;;;;24.71;100.00;99382.98;1764458;80;20919;-65
2021/08/22 08:15:38;;;;;;;3.17;2.12;;;;;;;24.81;100.00;99370.67;1752476;80;21438;-66
2021/08/22 08:18:06;;;;;;;5.10;2.15;;;;;;;24.92;100.00;99372.70;1755124;81;21035;-65
2021/08/22 08:20:35;;;;;;;2.22;1.55;;;;;;;25.05;100.00;99369.67;1755764;81;20903;-65
2021/08/22 08:23:03;;;;;;;4.37;2.15;;;;;;;25.14;100.00;99374.53;1759842;80;21114;-71
2021/08/22 08:25:30;;;;;;;4.70;1.98;;;;;;;25.24;100.00;99370.78;1766865;79;20954;-69
2021/08/22 08:27:59;;;;;;;2.37;1.67;;;;;;;25.34;100.00;99366.53;1770197;79;20891;-68
2021/08/22 08:30:26;;;;;;;2.17;1.65;;;;;;;25.44;100.00;99367.68;1757492;79;20892;-70
2021/08/22 08:32:54;;;;;;;2.72;1.55;;;;;;;25.53;100.00;99370.28;1768184;81;20979;-69
2021/08/22 08:35:22;;;;;;;4.87;1.90;;;;;;;25.62;100.00;99368.37;1768117;81;21169;-69
2021/08/22 08:37:50;;;;;;;2.90;1.50;;;;;;;25.73;100.00;99375.33;1768060;80;22071;-69
2021/08/22 08:40:20;;;;;;;1.77;1.62;;;;;;;25.84;100.00;99367.87;1766792;80;21540;-69
2021/08/22 08:43:05;;;;;;;4.92;1.75;;;;;;;25.96;100.00;99370.64;1770078;79;20931;-68
2021/08/22 08:45:59;;;;;;;2.05;1.60;;;;;;;26.06;100.00;99369.58;1745351;79;20931;-68
2021/08/22 08:49:14;;;;;;;3.40;1.40;;;;;;;26.13;100.00;99367.34;1771229;79;21184;-68
2021/08/22 08:52:05;;;;;;;1.85;1.20;;;;;;;26.21;100.00;99367.22;1771133;79;20844;-67
2021/08/22 08:54:49;;;;;;;1.70;1.32;;;;;;;26.34;100.00;99364.09;1771352;79;20907;-68
2021/08/22 08:57:17;;;;;;;1.70;1.55;;;;;;;26.44;100.00;99358.94;1744199;79;20891;-69
2021/08/22 08:59:45;;;;;;;2.87;1.42;;;;;;;26.56;98.70;99359.97;1771227;79;20872;-69
2021/08/22 09:02:13;;;;;;;1.82;1.40;;;;;;;26.63;97.54;99347.75;1771118;79;21157;-68
2021/08/22 09:05:03;;;;;;;2.30;1.45;;;;;;;26.74;97.76;99349.71;1771356;79;20855;-68
2021/08/22 09:08:12;;;;;;;2.92;1.52;;;;;;;26.82;94.28;99348.69;1771316;79;20930;-68
2021/08/22 09:11:36;;;;;;;3.58;1.32;;;;;;;26.91;91.96;99352.11;1761110;81;20889;-67
2021/08/22 09:14:48;;;;;;;2.30;1.35;;;;;;;26.99;92.27;99348.44;1766188;80;20878;-66
2021/08/22 09:21:40;;;;;;;1.80;1.30;;;;;;;27.15;87.10;99358.56;1629552;86;21073;-69
2021/08/22 09:24:53;;;;;;;1.65;1.35;;;;;;;27.26;86.57;99357.80;1619690;87;21024;-68
2021/08/22 09:27:46;;;;;;;5.35;1.72;;;;;;;27.34;85.57;99356.77;1633740;86;21492;-67
2021/08/22 09:31:08;;;;;;;2.98;1.52;;;;;;;27.44;86.64;99359.22;1628523;86;20946;-66
2021/08/22 09:34:16;;;;;;;2.65;1.15;;;;;;;27.54;86.37;99350.80;1619233;86;21933;-66
2021/08/22 09:37:30;;;;;;;2.58;1.30;;;;;;;27.66;82.78;99360.41;1613275;86;20974;-66
2021/08/22 09:40:44;;;;;;;1.65;1.20;;;;;;;27.74;79.89;99348.02;1628499;86;21070;-67
2021/08/22 09:43:50;;;;;;;2.17;1.40;;;;;;;27.86;77.92;99352.54;1627247;86;21007;-67
2021/08/22 09:47:13;;;;;;;3.05;1.32;;;;;;;27.98;74.69;99350.80;1625206;86;20914;-66
2021/08/22 09:50:39;;;;;;;1.30;1.20;;;;;;;28.11;74.32;99348.89;1634321;86;20945;-68
2021/08/22 09:53:20;;;;;;;1.80;1.15;;;;;;;28.21;71.27;99355.36;1605241;88;20956;-67
2021/08/22 09:56:34;;;;;;;4.33;1.47;;;;;;;28.29;72.10;99348.03;1627597;87;20977;-70
2021/08/22 10:00:00;;;;;;;2.27;1.22;;;;;;;28.37;70.92;99349.66;1640413;86;21480;-69
2021/08/22 10:03:00;;;;;;;9.48;3.70;;;;;;;28.48;68.12;99349.73;1639824;86;21008;-67
2021/08/22 10:05:53;;;;;;;6.25;2.45;;;;;;;28.63;67.21;99346.34;1614689;87;21958;-67
2021/08/22 10:09:06;;;;;;;2.87;1.67;;;;;;;28.75;66.48;99348.09;1623615;86;21615;-66
2021/08/22 10:11:45;;;;;;;2.77;1.57;;;;;;;28.90;66.36;99347.95;1599106;88;21548;-66
2021/08/22 10:14:13;;;;;;;2.67;1.62;;;;;;;29.02;65.72;99354.64;1638008;86;20968;-67
2021/08/22 10:16:42;;;;;;;2.10;1.67;;;;;;;29.12;67.02;99343.91;1625281;86;21595;-65
2021/08/22 10:19:09;;;;;;;2.35;1.37;;;;;;;29.19;66.03;99352.44;1623629;86;21128;-66
2021/08/22 10:21:37;;;;;;;2.52;1.30;;;;;;;29.21;62.19;99354.05;1659192;84;21467;-67
2021/08/22 10:24:37;;;;;;;1.77;1.37;;;;;;;29.15;59.45;99349.96;1605371;88;21012;-66
2021/08/22 10:27:06;;;;;;;6.70;1.42;;;;;;;29.05;57.40;99357.11;1642422;85;21016;-65
2021/08/22 10:29:50;;;;;;;3.55;2.30;;;;;;;28.84;56.23;99351.98;1633052;86;21579;-65
2021/08/22 10:32:18;;;;;;;1.90;1.70;;;;;;;28.64;56.52;99352.14;1616439;86;21157;-65
2021/08/22 10:35:18;;;;;;;2.15;1.52;;;;;;;28.48;58.01;99351.59;1658604;85;20952;-64
2021/08/22 10:37:47;;;;;;;3.20;1.75;;;;;;;28.41;59.21;99351.69;1651728;84;21016;-64
2021/08/22 10:40:29;;;;;;;28.15;16.57;;;;;;;28.44;58.56;99348.25;1643270;85;20964;-65
2021/08/22 10:43:09;;;;;;;6.67;4.33;;;;;;;28.51;60.80;99346.80;1621788;88;20908;-65
2021/08/22 10:45:53;;;;;;;8.88;4.90;;;;;;;28.66;62.06;99342.03;1627445;87;21173;-69
2021/08/22 10:48:29;;;;;;;6.62;2.00;;;;;;;28.80;63.47;99340.46;1634599;86;21056;-64
2021/08/22 10:51:04;;;;;;;8.00;1.52;;;;;;;28.97;63.88;99341.91;1648851;86;20935;-64
2021/08/22 10:53:47;;;;;;;6.83;1.98;;;;;;;29.00;60.10;99348.46;1651696;86;21036;-64
2021/08/22 10:56:30;;;;;;;3.15;1.50;;;;;;;28.93;58.17;99343.64;1651806;84;21042;-65
2021/08/22 10:59:06;;;;;;;3.27;1.90;;;;;;;28.78;56.08;99348.34;1653090;84;21168;-64
2021/08/22 11:01:37;;;;;;;3.17;1.98;;;;;;;28.65;56.25;99347.58;1641920;85;21546;-65
2021/08/22 11:04:17;;;;;;;3.02;1.85;;;;;;;28.58;57.25;99344.47;1638107;86;21621;-64
2021/08/22 11:07:06;;;;;;;3.40;2.00;;;;;;;28.61;60.51;99351.02;1639485;85;20956;-64
2021/08/22 11:09:45;;;;;;;1.40;1.17;;;;;;;28.70;60.57;99343.52;1638609;86;21040;-65
2021/08/22 11:12:28;;;;;;;4.30;1.42;;;;;;;28.82;58.51;99336.27;1638831;86;21112;-69
2021/08/22 11:14:59;;;;;;;4.15;1.87;;;;;;;29.00;59.58;99341.67;1638834;86;20889;-68
2021/08/22 11:17:27;;;;;;;4.42;1.27;;;;;;;29.19;59.43;99340.21;1639702;85;21663;-65
2021/08/22 11:20:10;;;;;;;12.05;1.62;;;;;;;29.34;56.75;99344.45;1636764;86;21019;-70
2021/08/22 11:22:38;;;;;;;3.55;1.40;;;;;;;29.41;53.72;99343.83;1613455;88;21039;-70
2021/08/22 11:25:07;;;;;;;2.95;1.50;;;;;;;29.41;51.95;99345.68;1594008;87;21095;-70
2021/08/22 11:27:35;;;;;;;5.75;1.45;;;;;;;29.33;50.27;99347.66;1612420;87;21015;-67
2021/08/22 11:30:08;;;;;;;4.83;1.65;;;;;;;29.26;50.27;99343.67;1610866;87;20999;-68
2021/08/22 11:32:37;;;;;;;3.90;1.47;;;;;;;29.23;51.04;99342.56;1607303;88;20938;-67
2021/08/22 11:35:14;;;;;;;12.95;2.17;;;;;;;29.24;51.64;99339.34;1612162;87;21538;-68
2021/08/22 11:37:44;;;;;;;4.33;1.47;;;;;;;29.25;51.95;99335.15;1608404;87;20981;-69
2021/08/22 11:40:17;;;;;;;3.85;1.60;;;;;;;29.32;52.79;99340.95;1638751;86;20999;-68
2021/08/22 11:42:46;;;;;;;1.52;1.27;;;;;;;29.38;51.33;99335.92;1636211;86;20955;-68
2021/08/22 11:45:17;;;;;;;1.52;1.20;;;;;;;29.47;50.13;99337.56;1609508;87;20942;-70
2021/08/22 11:47:45;;;;;;;2.63;1.20;;;;;;;29.52;49.71;99330.76;1639304;86;20880;-68
2021/08/22 11:50:14;;;;;;;4.00;1.37;;;;;;;29.53;48.20;99326.19;1638700;86;21178;-69
2021/08/22 11:52:48;;;;;;;1.67;1.20;;;;;;;29.47;47.22;99328.05;1638703;86;21515;-67
2021/08/22 11:55:18;;;;;;;3.15;1.30;;;;;;;29.34;46.67;99328.14;1609448;88;21035;-68
2021/08/22 11:57:45;;;;;;;1.75;1.27;;;;;;;29.16;45.79;99322.30;1615849;86;21479;-68
2021/08/22 12:00:19;;;;;;;2.62;1.27;;;;;;;29.03;46.77;99322.42;1638722;86;21114;-69
2021/08/22 12:02:58;;;;;;;3.72;1.72;;;;;;;29.00;48.26;99323.16;1638979;86;21434;-68
2021/08/22 12:05:26;;;;;;;6.22;1.80;;;;;;;29.03;50.11;99309.33;1607532;87;21030;-70
2021/08/22 12:08:12;;;;;;;2.27;1.35;;;;;;;29.09;51.03;99314.27;1638978;86;21108;-72
2021/08/22 12:10:41;;;;;;;2.60;1.70;;;;;;;29.17;52.01;99316.38;1610001;87;20950;-70
2021/08/22 12:13:20;;;;;;;1.32;1.22;;;;;;;29.27;50.63;99315.52;1639205;87;20951;-69
2021/08/22 12:15:51;;;;;;;1.80;1.50;;;;;;;29.34;49.28;99315.42;1637351;86;20910;-71
2021/08/22 12:18:33;;;;;;;2.97;1.40;;;;;;;29.39;48.27;99310.97;1606989;87;20923;-70
2021/08/22 12:21:14;;;;;;;3.15;1.47;;;;;;;29.43;47.75;99309.27;1648204;85;21231;-70
2021/08/22 12:23:44;;;;;;;3.33;1.60;;;;;;;29.48;47.33;99308.03;1650073;85;21184;-71
2021/08/22 12:26:29;;;;;;;4.22;1.30;;;;;;;29.51;47.09;99306.42;1648559;84;21081;-67
2021/08/22 12:29:08;;;;;;;1.90;1.45;;;;;;;29.53;45.95;99309.88;1637251;86;21176;-67
2021/08/22 12:31:39;;;;;;;2.85;1.40;;;;;;;29.63;47.40;99309.50;1637162;86;20938;-67
2021/08/22 12:34:12;;;;;;;2.10;1.30;;;;;;;29.72;47.30;99309.60;1637171;86;20974;-67
2021/08/22 12:36:41;;;;;;;5.35;1.30;;;;;;;29.78;46.70;99306.87;1637314;86;20974;-67
2021/08/22 12:39:11;;;;;;;1.70;1.25;;;;;;;29.82;46.97;99304.80;1605872;89;21080;-67
2021/08/22 12:41:54;;;;;;;1.98;1.52;;;;;;;29.88;46.02;99307.86;1637204;86;21163;-68
2021/08/22 12:44:26;;;;;;;2.17;1.65;;;;;;;29.94;45.48;99302.41;1637420;86;20879;-67
2021/08/22 12:47:02;;;;;;;4.17;1.50;;;;;;;30.02;45.22;99307.61;1636816;86;21596;-67
2021/08/22 12:49:30;;;;;;;3.70;1.50;;;;;;;30.12;44.48;99306.84;1637462;86;20910;-66
2021/08/22 12:52:00;;;;;;;11.30;1.92;;;;;;;30.21;43.58;99301.97;1637101;86;20954;-66
2021/08/22 12:54:29;;;;;;;3.85;1.60;;;;;;;30.29;43.37;99307.66;1637485;86;21228;-67
2021/08/22 12:56:58;;;;;;;1.62;1.30;;;;;;;30.34;42.40;99299.47;1637133;86;20871;-66
2021/08/22 12:59:26;;;;;;;2.52;1.45;;;;;;;30.38;42.51;99300.94;1637232;86;21023;-66
2021/08/22 13:01:55;;;;;;;1.55;1.20;;;;;;;30.45;42.48;99290.88;1637195;86;20970;-66
2021/08/22 13:04:25;;;;;;;1.22;1.12;;;;;;;30.49;42.17;99295.06;1637298;86;21438;-66
2021/08/22 13:06:55;;;;;;;3.00;1.52;;;;;;;30.55;41.55;99289.96;1637245;86;21153;-67
2021/08/22 13:09:23;;;;;;;3.45;1.42;;;;;;;30.61;41.91;99294.05;1637450;86;20954;-67
2021/08/22 13:11:51;;;;;;;3.87;2.72;;;;;;;30.68;41.80;99297.95;1637205;86;21086;-65
2021/08/22 13:14:19;;;;;;;3.62;1.50;;;;;;;30.75;42.41;99288.79;1648700;85;21641;-65
2021/08/22 13:16:49;;;;;;;3.00;1.77;;;;;;;30.80;41.96;99287.89;1649687;84;21005;-66
2021/08/22 13:19:17;;;;;;;4.35;2.10;;;;;;;30.84;42.41;99287.48;1650278;85;21196;-65
2021/08/22 13:21:54;;;;;;;2.47;1.80;;;;;;;30.89;42.49;99292.03;1663299;85;21500;-65
2021/08/22 13:24:21;;;;;;;3.45;1.82;;;;;;;30.90;41.93;99292.89;1642996;85;21035;-67
2021/08/22 13:26:48;;;;;;;3.33;2.15;;;;;;;30.81;40.65;99292.34;1668146;85;21635;-66
2021/08/22 13:29:17;;;;;;;3.50;1.50;;;;;;;30.74;40.36;99292.48;1665226;85;20965;-67
2021/08/22 13:31:46;;;;;;;1.37;1.27;;;;;;;30.70;40.29;99289.16;1662615;85;21228;-63
2021/08/22 13:34:15;;;;;;;3.40;1.50;;;;;;;30.69;40.56;99285.58;1692240;83;21468;-67
2021/08/22 13:36:43;;;;;;;3.02;1.50;;;;;;;30.67;40.71;99282.13;1666713;85;21052;-68
2021/08/22 13:39:10;;;;;;;2.45;1.50;;;;;;;30.65;40.05;99281.89;1663575;85;21620;-68
2021/08/22 13:41:40;;;;;;;2.12;1.40;;;;;;;30.63;39.52;99282.52;1663332;85;20910;-68
2021/08/22 13:44:08;;;;;;;2.70;1.30;;;;;;;30.58;38.94;99281.53;1666574;85;21161;-68
2021/08/22 13:46:37;;;;;;;1.60;1.50;;;;;;;30.56;38.83;99280.80;1665311;85;20868;-67
2021/08/22 13:49:04;;;;;;;7.42;2.83;;;;;;;30.56;39.16;99280.80;1662527;85;21084;-68
2021/08/22 13:51:33;;;;;;;6.22;1.80;;;;;;;30.56;39.95;99274.48;1664806;85;21488;-68
2021/08/22 13:54:02;;;;;;;2.50;1.40;;;;;;;30.56;39.34;99278.08;1672539;85;20971;-69
2021/08/22 13:56:29;;;;;;;2.92;1.55;;;;;;;30.56;38.79;99270.41;1646465;85;21430;-68
2021/08/22 13:58:57;;;;;;;2.90;1.57;;;;;;;30.57;39.06;99272.13;1667564;85;20893;-68
2021/08/22 14:01:29;;;;;;;3.90;1.50;;;;;;;30.57;39.78;99277.08;1625329;87;20923;-68
2021/08/22 14:03:57;;;;;;;3.62;1.65;;;;;;;30.58;40.12;99273.86;1633161;86;20983;-69
2021/08/22 14:06:25;;;;;;;1.85;1.40;;;;;;;30.57;40.09;99278.44;1600574;87;21095;-68
2021/08/22 14:08:54;;;;;;;3.70;1.80;;;;;;;30.52;39.83;99268.45;1600474;89;21136;-68
2021/08/22 14:11:21;;;;;;;1.80;1.40;;;;;;;30.43;39.58;99271.97;1601468;89;21744;-67
2021/08/22 14:13:50;;;;;;;2.72;1.60;;;;;;;30.36;40.04;99270.77;1626768;87;20924;-67
2021/08/22 14:16:20;;;;;;;3.60;1.67;;;;;;;30.31;39.65;99277.09;1640107;87;21400;-67
2021/08/22 14:18:51;;;;;;;2.80;1.50;;;;;;;30.23;39.87;99273.64;1659811;85;21403;-68
2021/08/22 14:21:18;;;;;;;3.75;1.67;;;;;;;30.17;39.81;99271.94;1659150;84;21314;-66
2021/08/22 14:23:46;;;;;;;1.98;1.30;;;;;;;30.08;39.13;99267.64;1624322;87;21032;-68
2021/08/22 14:26:14;;;;;;;1.80;1.45;;;;;;;30.02;39.10;99268.16;1625881;87;21036;-67
2021/08/22 14:28:43;;;;;;;4.62;1.77;;;;;;;29.93;39.17;99263.97;1639915;87;21054;-68
2021/08/22 14:31:10;;;;;;;3.10;1.40;;;;;;;29.83;39.83;99277.97;1629703;87;21066;-67
2021/08/22 14:33:39;;;;;;;5.28;1.57;;;;;;;29.73;39.61;99268.33;1660624;85;21233;-61
2021/08/22 14:36:07;;;;;;;2.47;1.50;;;;;;;29.65;39.43;99272.17;1627887;87;21026;-68
2021/08/22 14:38:35;;;;;;;2.35;1.60;;;;;;;29.56;39.05;99267.00;1624533;86;20932;-69
2021/08/22 14:41:02;;;;;;;2.22;1.70;;;;;;;29.49;39.73;99267.14;1600810;89;21446;-67
2021/08/22 14:43:31;;;;;;;5.08;3.17;;;;;;;29.39;39.64;99268.36;1663919;85;20941;-64
2021/08/22 14:46:01;;;;;;;3.67;2.85;;;;;;;29.33;40.31;99267.50;1658312;85;21175;-68
2021/08/22 14:48:29;;;;;;;11.70;6.53;;;;;;;29.25;40.43;99261.80;1624823;87;21075;-68
2021/08/22 14:51:00;;;;;;;6.05;2.92;;;;;;;29.17;41.17;99264.77;1637854;87;21109;-66
2021/08/22 14:53:28;;;;;;;4.58;2.08;;;;;;;29.07;41.05;99259.21;1624388;87;21051;-66
2021/08/22 14:55:57;;;;;;;4.03;2.02;;;;;;;28.96;40.95;99263.28;1600359;89;21667;-66
2021/08/22 14:58:26;;;;;;;191.15;96.00;;;;;;;28.83;41.35;99260.62;1603660;89;21423;-65
2021/08/22 15:00:55;;;;;;;58.65;31.60;;;;;;;28.74;42.03;99255.92;1612663;88;20975;-65
2021/08/22 15:06:18;;;;;;;26.02;14.45;;;;;;;28.56;42.57;99253.30;1724275;83;21004;-65
2021/08/22 15:08:48;;;;;;;37.80;22.17;;;;;;;28.45;42.54;99257.72;1724381;82;21531;-65
2021/08/22 15:11:15;;;;;;;17.73;11.97;;;;;;;28.37;43.05;99261.98;1710920;83;21151;-65
2021/08/22 15:13:45;;;;;;;12.45;7.83;;;;;;;28.30;43.60;99262.95;1697039;84;21540;-66
2021/08/22 15:16:16;;;;;;;10.35;5.97;;;;;;;28.22;43.67;99258.08;1696647;83;20938;-70
2021/08/22 15:18:45;;;;;;;40.40;24.65;;;;;;;28.14;43.46;99263.23;1698745;83;21640;-66
2021/08/22 15:21:12;;;;;;;91.37;53.35;;;;;;;28.07;44.33;99260.61;1704800;83;20932;-67
2021/08/22 15:23:41;;;;;;;97.42;57.13;;;;;;;27.99;44.78;99253.55;1704220;83;21849;-63
2021/08/22 15:26:11;;;;;;;160.07;93.70;;;;;;;27.94;44.96;99256.23;1699550;83;21419;-61
2021/08/22 15:28:40;;;;;;;90.67;53.17;;;;;;;27.85;45.02;99251.86;1702538;83;21036;-61
2021/08/22 15:31:08;;;;;;;32.95;19.40;;;;;;;27.77;45.23;99252.06;1704448;83;20932;-65
2021/08/22 15:33:36;;;;;;;43.90;22.58;;;;;;;27.69;45.74;99257.19;1702749;83;21043;-64
2021/08/22 15:36:04;;;;;;;17.35;9.30;;;;;;;27.62;45.94;99255.92;1674994;83;21114;-64
2021/08/22 15:38:33;;;;;;;10.23;4.78;;;;;;;27.52;46.52;99245.73;1722961;83;21010;-66
2021/08/22 15:41:01;;;;;;;9.50;4.83;;;;;;;27.46;47.31;99248.03;1722657;83;21130;-63
2021/08/22 15:43:30;;;;;;;13.58;7.42;;;;;;;27.39;47.48;99254.36;1645327;84;21023;-63
2021/08/22 15:45:59;;;;;;;9.00;4.08;;;;;;;27.33;48.03;99251.23;1688879;84;21565;-63
2021/08/22 15:48:31;;;;;;;7.90;4.85;;;;;;;27.28;48.38;99258.34;1675726;84;21660;-66
2021/08/22 15:50:58;;;;;;;9.90;6.17;;;;;;;27.24;49.21;99252.78;1675318;85;21035;-63
2021/08/22 15:53:26;;;;;;;6.15;4.12;;;;;;;27.23;49.63;99256.46;1717685;83;20947;-63
2021/08/22 15:55:55;;;;;;;5.12;3.80;;;;;;;27.20;49.42;99258.04;1723312;83;21000;-64
2021/08/22 15:58:22;;;;;;;4.85;3.20;;;;;;;27.19;49.88;99263.08;1722031;83;20995;-64
2021/08/22 16:00:50;;;;;;;3.77;2.80;;;;;;;27.20;49.83;99262.10;1720586;83;21157;-62
2021/08/22 16:03:19;;;;;;;5.37;3.40;;;;;;;27.20;49.83;99263.45;1722012;83;21030;-63
2021/08/22 16:05:48;;;;;;;6.90;4.15;;;;;;;27.14;49.89;99266.12;1692262;83;21499;-64
2021/08/22 16:08:24;;;;;;;7.20;4.37;;;;;;;27.04;50.19;99265.05;1655611;86;20972;-64
2021/08/22 16:10:52;;;;;;;5.37;3.80;;;;;;;26.94;50.49;99262.56;1689834;85;20947;-63
2021/08/22 16:13:21;;;;;;;5.80;3.87;;;;;;;26.83;50.97;99259.27;1690059;85;21146;-63
2021/08/22 16:15:51;;;;;;;11.45;4.05;;;;;;;26.73;51.36;99264.09;1686297;85;20884;-63
2021/08/22 16:18:19;;;;;;;29.40;4.85;;;;;;;26.62;52.26;99266.20;1662425;86;21470;-65
2021/08/22 16:20:47;;;;;;;13.10;4.60;;;;;;;26.50;53.17;99261.64;1691245;84;21027;-63
2021/08/22 16:23:16;;;;;;;13.62;4.95;;;;;;;26.38;53.46;99260.63;1692186;83;21566;-64
2021/08/22 16:25:48;;;;;;;10.05;5.53;;;;;;;26.25;53.98;99263.77;1672237;85;21633;-65
2021/08/22 16:28:15;;;;;;;11.90;5.22;;;;;;;26.11;54.19;99257.95;1689459;84;20994;-67
2021/08/22 16:30:43;;;;;;;16.87;7.20;;;;;;;25.98;54.95;99260.59;1691607;83;21490;-66
2021/08/22 16:33:11;;;;;;;28.50;14.35;;;;;;;25.85;55.72;99261.52;1666010;85;21014;-66
2021/08/22 16:35:40;;;;;;;36.15;17.15;;;;;;;25.70;56.87;99260.70;1664079;85;20995;-65
2021/08/22 16:38:08;;;;;;;302.25;152.15;;;;;;;25.57;59.46;99260.62;1667779;85;21163;-65
2021/08/22 16:40:36;;;;;;;280.07;145.20;;;;;;;25.42;64.59;99264.29;1721176;83;21018;-63
2021/08/22 16:43:05;;;;;;;278.60;133.45;;;;;;;25.25;68.41;99262.69;1720841;83;20888;-62
2021/08/22 16:45:32;;;;;;;173.93;83.67;;;;;;;25.10;74.56;99268.59;1690033;84;21018;-63
2021/08/22 16:48:00;;;;;;;211.60;51.80;;;;;;;24.94;79.98;99271.80;1650616;86;21067;-62
2021/08/22 16:50:29;;;;;;;110.90;31.48;;;;;;;24.78;84.39;99270.55;1689797;83;21117;-64
2021/08/22 16:52:57;;;;;;;58.60;26.75;;;;;;;24.62;87.36;99271.12;1662079;85;20966;-64
2021/08/22 16:55:25;;;;;;;49.75;22.22;;;;;;;24.47;89.09;99274.24;1689875;84;21015;-64
2021/08/22 16:57:52;;;;;;;39.75;21.70;;;;;;;24.31;90.64;99270.75;1654721;86;20927;-64
2021/08/22 17:00:22;;;;;;;36.93;21.90;;;;;;;24.17;91.86;99272.02;1692925;83;21182;-64
2021/08/22 17:02:50;;;;;;;37.03;20.92;;;;;;;24.01;92.19;99274.73;1690977;83;21103;-63
2021/08/22 17:05:18;;;;;;;40.40;21.35;;;;;;;23.88;92.52;99278.23;1692597;83;20939;-62
2021/08/22 17:07:46;;;;;;;30.77;18.77;;;;;;;23.76;92.52;99285.20;1714364;83;20893;-64
2021/08/22 17:10:13;;;;;;;32.63;17.52;;;;;;;23.63;93.17;99289.53;1700759;83;21585;-63
2021/08/22 17:12:41;;;;;;;29.18;15.28;;;;;;;23.50;93.79;99282.12;1705421;83;20988;-64
2021/08/22 17:15:10;;;;;;;33.35;16.20;;;;;;;23.37;94.14;99282.91;1697241;83;21068;-65
2021/08/22 17:17:37;;;;;;;35.15;18.50;;;;;;;23.26;95.11;99283.98;1684032;83;21066;-65
2021/08/22 17:20:07;;;;;;;48.05;22.20;;;;;;;23.14;96.22;99286.84;1694987;83;20943;-65
2021/08/22 17:22:35;;;;;;;39.25;21.55;;;;;;;23.02;98.30;99287.05;1693559;83;21625;-66
2021/08/22 17:25:03;;;;;;;41.33;19.95;;;;;;;22.91;98.97;99293.48;1691303;83;20952;-65
2021/08/22 17:27:31;;;;;;;89.37;44.00;;;;;;;22.80;99.81;99297.20;1689967;85;21168;-65
2021/08/22 17:30:01;;;;;;;60.65;28.00;;;;;;;22.68;100.00;99297.82;1690024;85;20995;-62
2021/08/22 17:32:29;;;;;;;35.03;18.98;;;;;;;22.56;100.00;99300.69;1690342;84;20956;-64
2021/08/22 17:34:56;;;;;;;52.75;27.90;;;;;;;22.45;100.00;99302.59;1690070;84;21023;-67
2021/08/22 17:37:25;;;;;;;54.60;30.50;;;;;;;22.35;100.00;99299.98;1690034;84;21087;-68
2021/08/22 17:39:53;;;;;;;46.73;27.27;;;;;;;22.26;100.00;99299.98;1689867;84;21146;-68
2021/08/22 17:42:21;;;;;;;46.85;23.62;;;;;;;22.20;100.00;99304.78;1690062;84;20900;-66
2021/08/22 17:45:10;;;;;;;69.03;26.90;;;;;;;22.12;100.00;99309.20;1689881;85;20992;-66
2021/08/22 17:47:39;;;;;;;46.02;24.20;;;;;;;22.03;100.00;99307.42;1666691;86;20930;-67
2021/08/22 17:50:13;;;;;;;33.28;20.12;;;;;;;21.94;100.00;99314.12;1709317;84;20960;-66
2021/08/22 17:52:41;;;;;;;32.85;16.80;;;;;;;21.87;100.00;99316.72;1694690;83;21162;-66
2021/08/22 17:55:10;;;;;;;50.08;18.82;;;;;;;21.77;100.00;99310.93;1710041;83;20883;-66
2021/08/22 17:57:40;;;;;;;38.30;17.48;;;;;;;21.70;100.00;99318.85;1682922;84;21484;-64
2021/08/22 18:00:09;;;;;;;26.62;15.50;;;;;;;21.65;100.00;99322.23;1694839;83;20977;-67
2021/08/22 18:02:38;;;;;;;24.25;13.15;;;;;;;21.60;100.00;99321.59;1702058;83;21083;-65
2021/08/22 18:05:07;;;;;;;24.45;14.90;;;;;;;21.54;100.00;99321.88;1658095;84;21132;-66
2021/08/22 18:07:36;;;;;;;38.83;21.42;;;;;;;21.47;100.00;99326.67;1701630;84;20973;-65
2021/08/22 18:10:04;;;;;;;43.83;23.67;;;;;;;21.42;100.00;99326.03;1692010;84;21018;-62
2021/08/22 18:12:33;;;;;;;38.08;20.12;;;;;;;21.34;100.00;99330.41;1699673;84;20969;-64
2021/08/22 18:15:08;;;;;;;27.15;15.32;;;;;;;21.27;100.00;99326.25;1698185;84;20978;-64
2021/08/22 18:17:37;;;;;;;28.05;16.23;;;;;;;21.21;100.00;99326.50;1700128;84;21065;-62
2021/08/22 18:20:07;;;;;;;37.50;16.50;;;;;;;21.15;100.00;99327.26;1698515;83;20880;-64
2021/08/22 18:22:37;;;;;;;30.20;16.73;;;;;;;21.09;100.00;99330.22;1700010;84;20886;-62
2021/08/22 18:25:09;;;;;;;17.57;10.93;;;;;;;21.02;100.00;99337.21;1699063;84;20947;-63
2021/08/22 18:27:39;;;;;;;28.35;13.03;;;;;;;20.96;100.00;99329.45;1698136;84;21007;-64
2021/08/22 18:30:07;;;;;;;43.40;19.87;;;;;;;20.91;100.00;99335.95;1699278;84;21149;-62
2021/08/22 18:32:35;;;;;;;32.08;16.87;;;;;;;20.85;100.00;99334.89;1694422;84;20991;-62
2021/08/22 18:35:05;;;;;;;43.05;20.10;;;;;;;20.79;100.00;99340.50;1697873;84;20966;-62
2021/08/22 18:37:44;;;;;;;41.02;19.62;;;;;;;20.73;100.00;99336.28;1699974;84;20997;-65
2021/08/22 18:40:15;;;;;;;46.30;21.17;;;;;;;20.67;100.00;99341.91;1702341;84;21030;-64
2021/08/22 18:42:47;;;;;;;43.25;20.77;;;;;;;20.59;100.00;99346.27;1698287;84;21214;-61
2021/08/22 18:45:16;;;;;;;34.63;17.55;;;;;;;20.53;100.00;99354.58;1701179;83;20994;-63
2021/08/22 18:47:46;;;;;;;34.88;16.60;;;;;;;20.46;100.00;99348.22;1667171;84;21007;-63
2021/08/22 18:50:15;;;;;;;42.98;19.90;;;;;;;20.40;100.00;99351.56;1674245;84;21032;-64
2021/08/22 18:52:44;;;;;;;47.27;21.62;;;;;;;20.37;100.00;99352.13;1664284;85;20967;-63
2021/08/22 18:55:14;;;;;;;59.03;28.30;;;;;;;20.32;100.00;99350.95;1681330;85;21165;-63
2021/08/22 18:57:45;;;;;;;57.35;27.52;;;;;;;20.26;100.00;99359.25;1653151;86;21559;-65
2021/08/22 19:00:15;;;;;;;53.80;26.45;;;;;;;20.20;100.00;99355.48;1654339;86;20952;-65
2021/08/22 19:02:43;;;;;;;45.92;25.48;;;;;;;20.13;100.00;99352.20;1670439;85;21547;-65
2021/08/22 19:05:12;;;;;;;41.75;17.15;;;;;;;20.09;100.00;99353.27;1671299;85;20963;-64
2021/08/22 19:07:41;;;;;;;27.70;14.65;;;;;;;20.05;100.00;99358.34;1713144;83;20896;-64
2021/08/22 19:10:10;;;;;;;26.20;14.20;;;;;;;20.00;100.00;99349.62;1704602;83;20903;-65
2021/08/22 19:12:39;;;;;;;31.12;14.95;;;;;;;19.96;100.00;99357.85;1714935;83;20879;-62
2021/08/22 19:15:07;;;;;;;27.82;14.70;;;;;;;19.92;100.00;99354.89;1713433;83;21019;-63